Time;durP1;ratioP1;P1;durP2;ratioP2;P2;SDS_P1;SDS_P2;PMS_P1;PMS_P2;Temp;Humidity;BMP_temperature;BMP_pressure;BME280_temperature;BME280_humidity;BME280_pressure;Samples;Min_cycle;Max_cycle;Signal;HPM_P1;HPM_P2
2023/09/04 00:00:36;;;;;;;6.60;1.80;;;;;;;15.90;84.70;101421.95;110467;1268;22141;-61
2023/09/04 00:03:28;;;;;;;8.80;1.90;;;;;;;15.90;84.82;101419.48;110459;1267;22982;-59
2023/09/04 00:05:59;;;;;;;5.50;1.80;;;;;;;15.89;85.02;101422.73;110457;1274;22143;-59
2023/09/04 00:08:30;;;;;;;6.90;1.70;;;;;;;15.89;85.12;101418.64;110443;1267;22275;-60
2023/09/04 00:11:00;;;;;;;9.20;2.20;;;;;;;15.89;85.27;101417.52;110438;1274;22496;-59
2023/09/04 00:13:32;;;;;;;5.50;1.70;;;;;;;15.88;85.44;101414.84;110466;1274;22153;-60
2023/09/04 00:16:02;;;;;;;8.00;1.80;;;;;;;15.87;85.50;101419.68;106860;1274;24039;-59
2023/09/04 00:18:33;;;;;;;6.80;1.80;;;;;;;15.85;85.36;101418.43;106392;1268;22601;-58
2023/09/04 00:21:04;;;;;;;9.70;1.70;;;;;;;15.84;85.43;101423.27;106528;1271;22578;-60
2023/09/04 00:23:35;;;;;;;11.00;1.80;;;;;;;15.82;85.62;101421.30;106534;1274;23885;-56
2023/09/04 00:26:06;;;;;;;7.10;1.70;;;;;;;15.79;85.66;101417.96;106504;1274;22530;-61
2023/09/04 00:28:37;;;;;;;7.30;1.70;;;;;;;15.76;85.79;101415.67;106562;1270;22516;-58
2023/09/04 00:31:08;;;;;;;6.30;1.80;;;;;;;15.74;85.86;101413.63;106514;1268;22514;-59
2023/09/04 00:33:39;;;;;;;7.50;2.00;;;;;;;15.73;85.98;101418.48;106455;1271;24183;-59
2023/09/04 00:36:10;;;;;;;11.00;1.80;;;;;;;15.71;85.86;101425.34;110417;1274;22180;-63
2023/09/04 00:38:41;;;;;;;6.40;1.70;;;;;;;15.67;85.89;101427.45;110441;1268;22417;-62
2023/09/04 00:41:11;;;;;;;10.30;1.90;;;;;;;15.64;86.06;101428.98;110470;1274;22225;-62
2023/09/04 00:43:43;;;;;;;6.80;1.80;;;;;;;15.63;86.12;101428.08;110492;1274;22187;-63
2023/09/04 00:46:15;;;;;;;9.10;1.90;;;;;;;15.63;86.05;101432.53;110463;1274;22958;-62
2023/09/04 00:48:46;;;;;;;7.90;1.60;;;;;;;15.63;86.04;101428.65;110453;1274;22217;-62
2023/09/04 00:51:18;;;;;;;4.90;1.40;;;;;;;15.64;86.30;101426.92;110423;1274;22417;-62
2023/09/04 00:53:50;;;;;;;6.50;1.70;;;;;;;15.62;86.28;101432.16;110442;1274;22251;-63
2023/09/04 00:56:21;;;;;;;6.30;1.60;;;;;;;15.58;86.31;101437.20;110477;1274;22163;-63
2023/09/04 00:58:52;;;;;;;5.40;1.40;;;;;;;15.54;86.56;101444.25;110444;1267;22154;-62
2023/09/04 01:01:23;;;;;;;11.90;1.90;;;;;;;15.54;86.71;101436.98;110469;1274;22402;-62
2023/09/04 01:03:54;;;;;;;7.70;1.60;;;;;;;15.55;86.95;101433.59;110464;1271;23377;-62
2023/09/04 01:06:25;;;;;;;7.30;1.50;;;;;;;15.54;87.12;101417.70;110456;1274;22225;-62
2023/09/04 01:08:56;;;;;;;8.70;1.60;;;;;;;15.54;87.15;101415.38;110516;1261;22176;-62
2023/09/04 01:11:33;;;;;;;6.10;1.50;;;;;;;15.53;87.10;101411.45;110448;1268;23390;-62
2023/09/04 01:14:11;;;;;;;7.80;1.50;;;;;;;15.51;87.03;101413.86;110467;1268;22212;-62
2023/09/04 01:16:43;;;;;;;8.90;1.40;;;;;;;15.50;87.11;101410.21;110441;1271;22161;-63
2023/09/04 01:19:17;;;;;;;5.40;1.50;;;;;;;15.51;87.08;101407.30;110423;1274;22686;-61
2023/09/04 01:21:48;;;;;;;4.90;1.50;;;;;;;15.50;87.03;101410.46;110466;1267;22237;-63
2023/09/04 01:24:19;;;;;;;7.40;1.40;;;;;;;15.47;86.97;101408.93;110419;1274;22169;-62
2023/09/04 01:26:56;;;;;;;5.30;1.30;;;;;;;15.47;87.21;101404.94;110453;1274;22431;-63
2023/09/04 01:29:35;;;;;;;4.00;1.20;;;;;;;15.48;87.34;101414.20;110437;1273;22110;-62
2023/09/04 01:32:11;;;;;;;5.00;1.30;;;;;;;15.46;87.27;101407.54;110455;1274;22179;-62
2023/09/04 01:34:44;;;;;;;6.90;1.60;;;;;;;15.46;87.32;101403.88;110437;1274;22193;-62
2023/09/04 01:37:16;;;;;;;7.50;1.60;;;;;;;15.43;87.38;101392.76;110495;1274;23066;-62
2023/09/04 01:39:49;;;;;;;5.80;1.40;;;;;;;15.39;87.21;101393.00;110451;1274;22227;-63
2023/09/04 01:42:20;;;;;;;5.60;1.20;;;;;;;15.35;87.19;101398.87;110426;1271;22159;-62
2023/09/04 01:44:51;;;;;;;6.30;1.60;;;;;;;15.30;87.22;101400.88;110491;1274;22327;-62
2023/09/04 01:47:22;;;;;;;6.40;2.00;;;;;;;15.25;87.07;101401.84;110471;1274;23523;-63
2023/09/04 01:49:53;;;;;;;8.40;1.30;;;;;;;15.21;86.97;101408.79;110451;1274;22179;-62
2023/09/04 01:52:24;;;;;;;4.40;1.10;;;;;;;15.17;86.94;101413.45;110494;1274;22143;-62
2023/09/04 01:54:55;;;;;;;5.50;1.30;;;;;;;15.11;87.12;101418.16;110458;1262;22143;-62
2023/09/04 01:57:26;;;;;;;3.70;1.30;;;;;;;15.07;87.28;101412.96;110504;1274;22312;-63
2023/09/04 01:59:56;;;;;;;6.40;1.20;;;;;;;15.05;87.37;101416.05;110502;1268;22393;-62
2023/09/04 02:02:27;;;;;;;7.80;1.30;;;;;;;15.04;87.25;101411.88;110447;1274;22470;-62
2023/09/04 02:04:58;;;;;;;5.90;1.30;;;;;;;15.04;87.51;101405.94;110498;1268;22192;-62
2023/09/04 02:07:29;;;;;;;4.80;1.30;;;;;;;15.03;87.65;101406.60;110492;1274;22963;-61
2023/09/04 02:10:00;;;;;;;6.50;1.40;;;;;;;15.03;87.79;101412.16;110491;1269;22188;-63
2023/09/04 02:12:30;;;;;;;5.30;1.30;;;;;;;15.02;87.92;101416.08;110463;1262;22345;-62
2023/09/04 02:15:01;;;;;;;5.50;1.30;;;;;;;14.99;87.91;101421.79;110498;1274;22820;-64
2023/09/04 02:17:33;;;;;;;5.90;1.60;;;;;;;14.95;87.99;101429.09;110440;1274;22234;-63
2023/09/04 02:20:04;;;;;;;4.70;1.10;;;;;;;14.89;88.22;101430.19;110496;1274;22212;-62
2023/09/04 02:22:35;;;;;;;8.90;1.70;;;;;;;14.84;88.43;101424.73;110469;1274;22211;-62
2023/09/04 02:25:07;;;;;;;5.90;1.20;;;;;;;14.82;88.46;101425.30;110519;1271;22254;-61
2023/09/04 02:27:38;;;;;;;7.10;1.20;;;;;;;14.82;88.47;101430.71;110457;1267;22973;-61
2023/09/04 02:30:10;;;;;;;5.00;1.30;;;;;;;14.81;88.62;101427.82;110480;1274;22268;-61
2023/09/04 02:32:42;;;;;;;6.40;1.30;;;;;;;14.78;88.60;101422.25;110440;1274;23488;-61
2023/09/04 02:35:14;;;;;;;8.10;1.60;;;;;;;14.75;88.51;101418.81;110443;1271;22227;-62
2023/09/04 02:37:46;;;;;;;5.20;1.20;;;;;;;14.72;88.53;101414.61;110492;1270;22263;-62
2023/09/04 02:40:16;;;;;;;6.70;1.30;;;;;;;14.70;88.51;101410.63;110432;1267;22259;-63
2023/09/04 02:42:47;;;;;;;9.30;2.00;;;;;;;14.67;88.45;101404.43;110455;1274;22327;-61
2023/09/04 02:45:18;;;;;;;10.40;1.40;;;;;;;14.65;88.35;101404.13;110471;1274;22256;-62
2023/09/04 02:47:50;;;;;;;5.90;1.20;;;;;;;14.64;88.42;101408.86;110490;1269;22286;-63
2023/09/04 02:50:21;;;;;;;6.90;1.50;;;;;;;14.61;88.24;101410.03;110444;1274;23542;-62
2023/09/04 02:52:52;;;;;;;8.40;1.50;;;;;;;14.57;88.02;101409.69;110506;1274;22804;-61
2023/09/04 02:55:23;;;;;;;12.50;1.40;;;;;;;14.51;87.94;101407.73;110459;1274;22295;-62
2023/09/04 02:57:54;;;;;;;5.90;1.10;;;;;;;14.46;88.03;101411.64;110469;1274;22212;-64
2023/09/04 03:00:26;;;;;;;8.30;1.20;;;;;;;14.41;87.80;101410.21;110461;1273;22352;-61
2023/09/04 03:02:57;;;;;;;6.70;1.40;;;;;;;14.35;87.92;101410.08;110479;1274;22202;-62
2023/09/04 03:05:29;;;;;;;7.90;1.40;;;;;;;14.30;87.98;101411.48;110470;1271;22183;-61
2023/09/04 03:08:00;;;;;;;8.50;1.50;;;;;;;14.26;88.11;101416.17;110488;1274;22212;-61
2023/09/04 03:10:32;;;;;;;5.90;1.30;;;;;;;14.23;88.27;101413.60;110447;1271;22326;-59
2023/09/04 03:13:04;;;;;;;5.40;1.60;;;;;;;14.20;88.36;101419.61;110463;1274;22309;-61
2023/09/04 03:15:34;;;;;;;6.00;1.50;;;;;;;14.19;88.69;101428.66;110476;1274;22248;-58
2023/09/04 03:18:06;;;;;;;8.40;1.60;;;;;;;14.17;89.09;101426.75;110457;1274;22214;-59
2023/09/04 03:20:36;;;;;;;5.90;1.40;;;;;;;14.15;89.28;101428.43;110462;1274;23218;-60
2023/09/04 03:23:08;;;;;;;5.10;1.40;;;;;;;14.16;89.56;101435.23;110382;1267;22174;-60
2023/09/04 03:25:39;;;;;;;4.90;1.30;;;;;;;14.15;89.54;101434.61;110425;1268;23217;-60
2023/09/04 03:28:10;;;;;;;10.30;1.50;;;;;;;14.16;89.62;101431.36;110474;1267;22181;-59
2023/09/04 03:30:41;;;;;;;13.80;1.90;;;;;;;14.17;89.81;101431.14;110446;1261;22203;-59
2023/09/04 03:33:12;;;;;;;9.50;2.00;;;;;;;14.17;89.83;101435.80;110482;1270;22394;-60
2023/09/04 03:35:43;;;;;;;9.90;1.70;;;;;;;14.17;89.97;101440.54;110500;1274;22188;-59
2023/09/04 03:38:14;;;;;;;8.00;1.60;;;;;;;14.16;90.08;101440.66;110485;1274;22268;-59
2023/09/04 03:40:46;;;;;;;8.40;1.80;;;;;;;14.17;90.20;101446.16;110461;1274;22166;-61
2023/09/04 03:43:17;;;;;;;7.30;1.80;;;;;;;14.18;90.40;101444.80;110471;1267;22424;-61
2023/09/04 03:45:48;;;;;;;9.70;2.20;;;;;;;14.19;90.43;101442.12;110447;1274;23593;-60
2023/09/04 03:48:19;;;;;;;9.30;2.10;;;;;;;14.20;90.56;101437.09;110485;1274;22168;-60
2023/09/04 03:50:50;;;;;;;6.10;1.90;;;;;;;14.22;90.75;101430.52;110456;1271;22191;-59
2023/09/04 03:53:21;;;;;;;12.40;1.90;;;;;;;14.23;90.89;101438.63;110454;1274;23051;-61
2023/09/04 03:55:51;;;;;;;7.60;1.90;;;;;;;14.24;90.90;101443.31;110462;1274;22205;-61
2023/09/04 03:58:22;;;;;;;7.40;1.70;;;;;;;14.24;91.25;101445.58;110474;1274;22386;-59
2023/09/04 04:00:59;;;;;;;6.30;1.70;;;;;;;14.20;91.41;101447.60;110498;1274;22220;-61
2023/09/04 04:03:30;;;;;;;7.60;1.50;;;;;;;14.17;91.58;101450.19;110444;1274;22875;-61
2023/09/04 04:06:01;;;;;;;7.30;1.60;;;;;;;14.14;91.66;101443.57;110455;1274;22328;-60
2023/09/04 04:08:32;;;;;;;7.90;1.70;;;;;;;14.15;91.79;101435.32;110479;1271;22140;-61
2023/09/04 04:11:04;;;;;;;10.00;1.70;;;;;;;14.17;91.90;101433.33;110472;1274;22197;-61
2023/09/04 04:13:35;;;;;;;8.00;1.90;;;;;;;14.19;91.94;101436.59;110432;1266;22282;-60
2023/09/04 04:16:06;;;;;;;5.30;1.50;;;;;;;14.22;91.92;101437.64;110461;1271;22111;-61
2023/09/04 04:18:37;;;;;;;10.90;3.10;;;;;;;14.24;91.99;101436.35;110510;1267;22136;-60
2023/09/04 04:21:08;;;;;;;6.40;1.50;;;;;;;14.26;92.06;101439.29;110460;1267;22321;-61
2023/09/04 04:23:39;;;;;;;5.70;1.60;;;;;;;14.27;92.09;101441.80;110486;1262;22159;-60
2023/09/04 04:26:10;;;;;;;6.20;1.60;;;;;;;14.28;92.12;101456.30;110462;1269;22227;-61
2023/09/04 04:28:41;;;;;;;9.80;1.90;;;;;;;14.25;92.12;101458.80;110463;1274;23300;-60
2023/09/04 04:31:12;;;;;;;8.90;1.70;;;;;;;14.23;92.41;101469.11;110422;1274;22364;-61
2023/09/04 04:33:43;;;;;;;8.10;1.80;;;;;;;14.18;92.50;101464.62;110512;1274;23222;-60
2023/09/04 04:36:14;;;;;;;6.10;1.50;;;;;;;14.16;92.68;101471.16;110455;1268;22512;-60
2023/09/04 04:38:45;;;;;;;5.60;1.50;;;;;;;14.14;92.85;101474.16;110460;1274;22191;-60
2023/09/04 04:41:16;;;;;;;6.70;1.50;;;;;;;14.12;92.91;101478.09;110452;1274;22230;-60
2023/09/04 04:43:47;;;;;;;9.60;1.50;;;;;;;14.11;93.07;101485.52;110469;1274;22218;-60
2023/09/04 04:46:19;;;;;;;8.50;1.60;;;;;;;14.10;93.32;101497.14;110493;1268;22164;-61
2023/09/04 04:48:49;;;;;;;8.60;1.80;;;;;;;14.10;93.40;101491.77;110451;1267;22192;-60
2023/09/04 04:51:20;;;;;;;8.00;1.40;;;;;;;14.12;93.55;101498.26;110408;1269;22347;-60
2023/09/04 04:53:51;;;;;;;6.60;1.50;;;;;;;14.14;93.88;101503.10;110321;1268;22320;-60
2023/09/04 04:56:23;;;;;;;7.90;1.30;;;;;;;14.16;94.05;101506.88;110297;1260;22442;-61
2023/09/04 04:58:54;;;;;;;9.50;2.10;;;;;;;14.17;94.52;101509.97;110371;1267;22162;-61
2023/09/04 05:01:25;;;;;;;5.70;1.50;;;;;;;14.17;94.43;101513.05;110358;1266;22398;-62
2023/09/04 05:03:56;;;;;;;8.00;2.20;;;;;;;14.19;94.60;101514.36;110384;1268;22327;-62
2023/09/04 05:06:26;;;;;;;5.80;1.60;;;;;;;14.20;94.67;101512.95;110416;1266;22142;-60
2023/09/04 05:08:58;;;;;;;9.80;2.00;;;;;;;14.22;94.56;101520.61;110416;1266;22408;-61
2023/09/04 05:11:28;;;;;;;9.60;1.80;;;;;;;14.24;94.69;101518.21;110404;1267;23465;-62
2023/09/04 05:14:00;;;;;;;7.30;1.60;;;;;;;14.26;94.86;101517.92;110357;1266;22345;-62
2023/09/04 05:16:31;;;;;;;7.20;1.70;;;;;;;14.29;94.95;101520.20;110395;1267;22464;-63
2023/09/04 05:19:02;;;;;;;10.10;1.80;;;;;;;14.32;95.00;101518.72;110357;1266;22356;-61
2023/09/04 05:21:32;;;;;;;4.70;1.20;;;;;;;14.35;95.06;101522.10;110409;1270;22320;-62
2023/09/04 05:24:05;;;;;;;7.10;1.70;;;;;;;14.37;94.80;101518.88;110345;1266;23082;-63
2023/09/04 05:26:37;;;;;;;8.90;1.70;;;;;;;14.41;94.76;101515.55;110361;1267;22971;-60
2023/09/04 05:29:08;;;;;;;8.70;1.80;;;;;;;14.44;94.68;101513.94;110395;1267;22440;-60
2023/09/04 05:31:39;;;;;;;8.80;1.70;;;;;;;14.48;94.73;101514.17;110319;1269;22354;-60
2023/09/04 05:34:10;;;;;;;6.80;2.00;;;;;;;14.49;94.64;101510.79;110383;1267;22369;-60
2023/09/04 05:36:41;;;;;;;7.40;1.60;;;;;;;14.51;94.80;101514.71;110386;1268;22295;-62
2023/09/04 05:39:12;;;;;;;8.90;1.90;;;;;;;14.52;94.67;101510.68;110438;1268;22323;-62
2023/09/04 05:41:43;;;;;;;9.20;1.30;;;;;;;14.54;94.90;101518.70;110400;1265;22193;-64
2023/09/04 05:44:14;;;;;;;5.20;1.50;;;;;;;14.55;94.97;101522.47;110424;1267;22328;-62
2023/09/04 05:46:46;;;;;;;6.60;1.50;;;;;;;14.55;94.96;101522.79;110363;1266;22440;-63
2023/09/04 05:49:17;;;;;;;6.90;1.50;;;;;;;14.57;95.11;101526.40;110436;1267;22528;-62
2023/09/04 05:51:48;;;;;;;12.20;1.70;;;;;;;14.58;95.29;101522.23;110392;1267;22309;-63
2023/09/04 05:54:18;;;;;;;7.50;1.70;;;;;;;14.60;95.28;101522.11;110443;1273;22286;-63
2023/09/04 05:56:49;;;;;;;8.90;1.90;;;;;;;14.62;95.57;101523.91;110409;1269;22394;-63
2023/09/04 05:59:20;;;;;;;4.70;1.40;;;;;;;14.67;95.69;101524.88;110456;1273;22185;-63
2023/09/04 06:01:51;;;;;;;8.00;1.50;;;;;;;14.71;95.54;101524.61;110405;1269;22427;-63
2023/09/04 06:04:22;;;;;;;11.20;1.80;;;;;;;14.76;95.44;101520.42;110445;1271;22155;-62
2023/09/04 06:06:54;;;;;;;9.90;1.80;;;;;;;14.82;95.42;101520.21;110421;1271;22367;-63
2023/09/04 06:09:25;;;;;;;6.60;1.70;;;;;;;14.86;95.14;101519.02;110496;1273;22405;-62
2023/09/04 06:11:55;;;;;;;7.40;1.80;;;;;;;14.89;95.18;101518.13;110398;1265;22344;-63
2023/09/04 06:14:26;;;;;;;12.60;2.20;;;;;;;14.93;95.40;101520.82;110325;1269;22530;-62
2023/09/04 06:17:18;;;;;;;8.60;1.70;;;;;;;14.98;95.34;101526.29;109691;1268;25723;-61
2023/09/04 06:20:14;;;;;;;7.50;1.50;;;;;;;15.04;95.43;101524.02;106106;1279;24358;-61
2023/09/04 06:22:45;;;;;;;11.70;1.40;;;;;;;15.10;95.42;101526.40;110022;1278;22259;-61
2023/09/04 06:25:17;;;;;;;10.80;2.10;;;;;;;15.16;95.46;101528.32;110050;1268;22200;-61
2023/09/04 06:27:48;;;;;;;6.50;1.40;;;;;;;15.23;95.45;101523.48;110017;1280;22258;-61
2023/09/04 06:30:19;;;;;;;8.90;1.80;;;;;;;15.27;95.26;101522.39;110026;1266;22253;-62
2023/09/04 06:32:50;;;;;;;6.60;1.40;;;;;;;15.32;94.96;101523.23;110029;1279;22221;-61
2023/09/04 06:35:21;;;;;;;6.80;1.90;;;;;;;15.36;94.74;101525.69;110054;1279;23031;-61
2023/09/04 06:37:55;;;;;;;8.20;2.00;;;;;;;15.40;94.73;101525.47;110239;1273;22179;-61
2023/09/04 06:40:26;;;;;;;5.70;1.60;;;;;;;15.45;94.61;101528.45;110444;1274;22398;-60
2023/09/04 06:42:57;;;;;;;10.70;1.90;;;;;;;15.51;94.74;101526.23;110448;1274;22202;-61
2023/09/04 06:45:28;;;;;;;7.80;1.70;;;;;;;15.56;94.83;101534.05;110454;1273;23161;-61
2023/09/04 06:47:59;;;;;;;7.30;1.40;;;;;;;15.62;94.53;101536.16;110439;1274;22988;-62
2023/09/04 06:50:30;;;;;;;5.20;1.50;;;;;;;15.68;94.66;101532.70;110476;1268;22145;-61
2023/09/04 06:53:00;;;;;;;4.40;1.30;;;;;;;15.76;94.43;101528.65;110440;1274;22183;-62
2023/09/04 06:55:32;;;;;;;7.30;1.30;;;;;;;15.84;94.24;101525.88;110432;1273;22196;-62
2023/09/04 06:58:03;;;;;;;6.40;1.50;;;;;;;15.92;94.03;101521.83;110451;1274;22201;-61
2023/09/04 07:00:35;;;;;;;6.30;1.10;;;;;;;16.00;93.81;101526.63;110462;1274;22625;-62
2023/09/04 07:03:06;;;;;;;5.80;1.20;;;;;;;16.06;93.46;101527.45;110452;1273;22191;-62
2023/09/04 07:05:37;;;;;;;8.60;1.30;;;;;;;16.12;93.31;101527.29;110475;1271;22157;-61
2023/09/04 07:08:08;;;;;;;6.10;1.50;;;;;;;16.18;93.34;101531.70;110434;1274;23002;-61
2023/09/04 07:10:39;;;;;;;7.70;1.30;;;;;;;16.26;93.40;101542.17;110459;1273;22380;-62
2023/09/04 07:13:10;;;;;;;4.80;1.10;;;;;;;16.34;92.90;101537.89;110438;1269;22338;-61
2023/09/04 07:15:41;;;;;;;10.30;1.40;;;;;;;16.42;92.18;101537.25;110454;1270;22230;-61
2023/09/04 07:18:12;;;;;;;9.10;1.30;;;;;;;16.48;91.90;101536.39;110463;1266;22183;-61
2023/09/04 07:20:43;;;;;;;6.90;1.00;;;;;;;16.54;91.87;101537.02;110462;1274;23015;-61
2023/09/04 07:23:14;;;;;;;7.60;1.10;;;;;;;16.62;92.09;101539.97;110454;1273;22247;-62
2023/09/04 07:25:45;;;;;;;7.00;1.50;;;;;;;16.71;91.74;101541.53;110476;1273;22137;-61
2023/09/04 07:28:16;;;;;;;6.40;1.10;;;;;;;16.80;91.13;101533.05;110438;1270;22148;-62
2023/09/04 07:30:47;;;;;;;4.00;1.00;;;;;;;16.89;90.75;101532.65;110450;1273;22185;-61
2023/09/04 07:33:18;;;;;;;10.10;1.20;;;;;;;16.98;90.44;101530.53;110485;1273;22314;-61
2023/09/04 07:35:57;;;;;;;4.50;1.00;;;;;;;17.09;90.75;101528.86;110444;1273;22382;-61
2023/09/04 07:38:28;;;;;;;7.30;1.10;;;;;;;17.17;89.11;101536.88;110436;1273;23146;-61
2023/09/04 07:41:03;;;;;;;6.20;1.00;;;;;;;17.23;89.09;101540.80;110463;1273;22139;-61
2023/09/04 07:43:35;;;;;;;5.70;0.90;;;;;;;17.29;89.48;101543.14;110445;1267;22387;-63
2023/09/04 07:46:06;;;;;;;6.40;0.90;;;;;;;17.40;88.86;101540.64;110509;1271;22187;-61
2023/09/04 07:48:37;;;;;;;6.00;1.10;;;;;;;17.48;88.48;101540.81;110417;1273;22150;-62
2023/09/04 07:51:11;;;;;;;4.20;1.00;;;;;;;17.58;88.22;101535.18;110458;1273;23092;-61
2023/09/04 07:53:42;;;;;;;7.80;1.10;;;;;;;17.67;87.83;101534.48;110436;1270;22173;-63
2023/09/04 07:56:13;;;;;;;4.20;1.00;;;;;;;17.74;87.97;101535.20;110460;1274;23350;-61
2023/09/04 07:58:44;;;;;;;8.50;1.00;;;;;;;17.78;87.40;101533.45;110430;1273;22598;-62
2023/09/04 08:01:17;;;;;;;4.10;1.00;;;;;;;17.83;87.16;101539.40;110450;1273;22941;-61
2023/09/04 08:03:48;;;;;;;8.30;1.20;;;;;;;17.87;86.24;101539.34;110447;1274;22396;-62
2023/09/04 08:06:19;;;;;;;4.60;0.90;;;;;;;17.89;86.88;101535.72;110433;1273;22831;-64
2023/09/04 08:08:52;;;;;;;5.40;0.80;;;;;;;17.95;86.58;101543.68;110427;1273;22614;-62
2023/09/04 08:11:23;;;;;;;8.50;0.90;;;;;;;17.96;85.99;101546.27;110455;1266;22163;-62
2023/09/04 08:13:54;;;;;;;4.70;0.90;;;;;;;17.98;85.96;101549.89;110434;1273;22213;-62
2023/09/04 08:16:25;;;;;;;5.90;1.40;;;;;;;18.04;85.97;101553.64;110449;1270;22316;-62
2023/09/04 08:18:56;;;;;;;4.80;0.90;;;;;;;18.06;85.10;101555.30;110471;1271;22211;-63
2023/09/04 08:21:27;;;;;;;7.70;1.00;;;;;;;18.07;85.21;101561.94;110475;1273;22388;-62
2023/09/04 08:23:58;;;;;;;6.30;0.90;;;;;;;18.08;84.57;101565.20;110450;1273;23051;-62
2023/09/04 08:26:30;;;;;;;9.00;1.00;;;;;;;18.11;85.34;101570.27;110431;1267;22138;-62
2023/09/04 08:29:01;;;;;;;3.10;0.70;;;;;;;18.19;85.58;101574.95;110445;1270;22179;-61
2023/09/04 08:31:31;;;;;;;9.90;1.00;;;;;;;18.29;85.15;101579.61;110466;1273;23094;-62
2023/09/04 08:34:04;;;;;;;9.40;1.00;;;;;;;18.37;83.83;101580.80;110463;1270;22151;-63
2023/09/04 08:36:35;;;;;;;5.60;0.70;;;;;;;18.42;83.68;101581.42;110478;1273;22107;-62
2023/09/04 08:39:07;;;;;;;6.10;0.90;;;;;;;18.48;83.56;101581.35;110516;1273;22176;-61
2023/09/04 08:41:39;;;;;;;5.30;0.90;;;;;;;18.54;83.57;101581.14;110475;1267;22785;-62
2023/09/04 08:44:10;;;;;;;4.60;0.90;;;;;;;18.62;83.13;101577.50;110450;1271;22141;-62
2023/09/04 08:46:46;;;;;;;6.70;1.30;;;;;;;18.67;82.75;101576.77;110436;1273;22187;-63
2023/09/04 08:49:17;;;;;;;6.30;1.00;;;;;;;18.70;82.76;101580.69;110482;1273;22337;-62
2023/09/04 08:51:49;;;;;;;4.80;0.90;;;;;;;18.73;82.38;101579.93;110450;1270;22219;-62
2023/09/04 08:54:20;;;;;;;6.60;1.10;;;;;;;18.72;81.70;101574.79;110448;1264;22338;-62
2023/09/04 08:56:52;;;;;;;7.20;0.90;;;;;;;18.71;81.34;101576.33;110465;1271;22232;-62
2023/09/04 08:59:22;;;;;;;5.30;0.70;;;;;;;18.71;81.22;101575.35;110450;1273;22545;-61
2023/09/04 09:01:54;;;;;;;9.60;0.90;;;;;;;18.73;80.80;101575.09;110450;1273;22926;-63
2023/09/04 09:04:26;;;;;;;6.30;1.10;;;;;;;18.76;80.63;101575.06;110430;1270;22322;-62
2023/09/04 09:06:57;;;;;;;4.90;0.90;;;;;;;18.80;80.56;101571.40;110415;1267;22170;-62
2023/09/04 09:09:29;;;;;;;5.70;0.70;;;;;;;18.86;80.84;101573.86;110470;1265;23095;-62
2023/09/04 09:12:00;;;;;;;4.60;0.80;;;;;;;18.94;80.71;101572.83;110461;1273;22244;-62
2023/09/04 09:14:31;;;;;;;5.60;1.00;;;;;;;19.00;79.88;101571.73;110425;1273;22319;-62
2023/09/04 09:17:07;;;;;;;4.20;0.80;;;;;;;19.03;80.14;101571.54;110447;1273;22854;-62
2023/09/04 09:19:39;;;;;;;5.70;0.90;;;;;;;19.12;79.62;101565.36;110425;1270;23083;-62
2023/09/04 09:22:14;;;;;;;3.90;0.80;;;;;;;19.20;80.07;101561.45;110442;1273;22171;-62
2023/09/04 09:24:53;;;;;;;4.50;0.70;;;;;;;19.28;78.79;101559.98;110433;1271;22259;-62
2023/09/04 09:27:26;;;;;;;6.20;0.70;;;;;;;19.29;78.22;101561.42;110499;1267;22190;-62
2023/09/04 09:29:59;;;;;;;7.30;0.90;;;;;;;19.31;77.72;101557.89;110464;1274;22267;-62
2023/09/04 09:32:34;;;;;;;4.20;0.80;;;;;;;19.36;77.01;101558.14;110402;1270;22300;-62
2023/09/04 09:35:05;;;;;;;5.60;0.70;;;;;;;19.42;77.61;101556.63;110452;1270;22147;-62
2023/09/04 09:37:37;;;;;;;5.40;0.80;;;;;;;19.50;77.95;101552.33;110496;1273;22306;-62
2023/09/04 09:40:12;;;;;;;7.30;0.80;;;;;;;19.55;77.00;101553.27;110445;1273;23079;-63
2023/09/04 09:42:43;;;;;;;4.70;0.90;;;;;;;19.57;76.27;101553.38;110456;1267;23111;-61
2023/09/04 09:45:15;;;;;;;4.30;0.90;;;;;;;19.56;75.92;101553.36;110495;1273;22313;-61
2023/09/04 09:47:47;;;;;;;3.80;0.70;;;;;;;19.55;75.64;101551.92;110430;1273;22234;-61
2023/09/04 09:50:18;;;;;;;2.90;0.70;;;;;;;19.57;75.92;101552.14;110454;1273;22855;-61
2023/09/04 09:53:00;;;;;;;6.00;0.80;;;;;;;19.64;75.44;101550.61;110421;1270;22598;-60
2023/09/04 09:55:34;;;;;;;7.00;0.70;;;;;;;19.72;74.63;101546.88;110434;1267;22346;-62
2023/09/04 09:58:08;;;;;;;4.40;0.90;;;;;;;19.77;74.22;101550.85;110464;1273;22188;-62
2023/09/04 10:00:39;;;;;;;2.70;0.60;;;;;;;19.82;73.94;101547.41;110429;1267;22127;-62
2023/09/04 10:03:13;;;;;;;5.30;0.80;;;;;;;19.84;73.34;101552.72;110449;1273;23173;-62
2023/09/04 10:05:46;;;;;;;4.00;0.70;;;;;;;19.85;71.79;101550.56;106331;1273;5409934;-62
2023/09/04 10:08:17;;;;;;;6.20;0.90;;;;;;;19.88;72.38;101546.70;110126;1278;22350;-63
2023/09/04 10:10:49;;;;;;;3.20;0.80;;;;;;;19.93;72.59;101547.53;110114;1279;23127;-61
2023/09/04 10:13:27;;;;;;;3.10;0.80;;;;;;;19.96;72.01;101546.67;110130;1267;22704;-63
2023/09/04 10:16:02;;;;;;;5.30;0.80;;;;;;;20.02;72.06;101546.40;110140;1278;22275;-62
2023/09/04 10:18:34;;;;;;;4.40;0.80;;;;;;;20.11;72.09;101544.11;110121;1278;22200;-63
2023/09/04 10:21:07;;;;;;;4.70;0.70;;;;;;;20.24;72.53;101547.73;110160;1270;22239;-63
2023/09/04 10:23:44;;;;;;;3.80;0.70;;;;;;;20.32;70.94;101544.81;110127;1272;22279;-62
2023/09/04 10:26:24;;;;;;;4.70;0.90;;;;;;;20.35;71.61;101542.28;110161;1272;22515;-63
2023/09/04 10:28:59;;;;;;;;;;;;;;;20.38;70.94;101543.92;110119;1278;22427;-62
2023/09/04 10:31:32;;;;;;;4.10;0.60;;;;;;;20.41;71.16;101537.89;110111;1275;22438;-62
2023/09/04 10:34:03;;;;;;;5.60;0.80;;;;;;;20.44;70.84;101543.14;110121;1278;22195;-63
2023/09/04 10:36:35;;;;;;;6.50;0.80;;;;;;;20.34;70.06;101546.71;110139;1273;22870;-62
2023/09/04 10:39:08;;;;;;;4.90;0.80;;;;;;;20.20;69.17;101546.75;110121;1278;22219;-62
2023/09/04 10:41:40;;;;;;;4.00;0.60;;;;;;;20.11;69.97;101541.52;110131;1273;22952;-62
2023/09/04 10:44:12;;;;;;;4.20;0.90;;;;;;;20.11;70.53;101538.23;110103;1273;23079;-62
2023/09/04 10:46:57;;;;;;;4.10;0.60;;;;;;;20.19;69.47;101536.33;110349;1273;22391;-62
2023/09/04 10:49:34;;;;;;;3.90;0.60;;;;;;;20.20;68.71;101529.80;110493;1259;23053;-62
2023/09/04 10:52:06;;;;;;;4.90;0.70;;;;;;;20.22;68.75;101521.30;110453;1271;22192;-62
2023/09/04 10:54:38;;;;;;;2.80;0.70;;;;;;;20.28;67.75;101515.73;110414;1273;22403;-62
2023/09/04 10:57:12;;;;;;;4.00;0.70;;;;;;;20.31;67.75;101510.57;110491;1273;22321;-62
2023/09/04 11:00:01;;;;;;;3.40;0.70;;;;;;;20.36;67.69;101507.48;110410;1273;22217;-63
2023/09/04 11:02:34;;;;;;;2.80;0.60;;;;;;;20.45;67.48;101511.95;110437;1273;22260;-62
2023/09/04 11:05:11;;;;;;;3.80;0.80;;;;;;;20.51;67.10;101509.11;110477;1273;22180;-62
2023/09/04 11:07:42;;;;;;;3.80;0.60;;;;;;;20.56;66.83;101503.89;110467;1267;22204;-62
2023/09/04 11:10:36;;;;;;;3.60;0.70;;;;;;;20.59;66.70;101500.06;110428;1270;22186;-64
2023/09/04 11:13:09;;;;;;;3.50;0.80;;;;;;;20.61;65.83;101497.84;110435;1264;22420;-62
2023/09/04 11:15:40;;;;;;;4.80;0.80;;;;;;;20.68;66.47;101495.20;110456;1273;22186;-64
2023/09/04 11:18:16;;;;;;;4.70;0.80;;;;;;;20.74;66.07;101491.20;110462;1273;22184;-63
2023/09/04 11:20:54;;;;;;;4.60;0.80;;;;;;;20.82;65.98;101493.25;110419;1273;22129;-63
2023/09/04 11:23:28;;;;;;;6.20;0.70;;;;;;;20.87;65.60;101496.11;110442;1270;22332;-63
2023/09/04 11:25:59;;;;;;;4.50;0.80;;;;;;;20.92;65.29;101499.09;110453;1270;22186;-63
2023/09/04 11:28:30;;;;;;;4.20;0.70;;;;;;;20.97;65.81;101498.88;110460;1270;22198;-64
2023/09/04 11:31:02;;;;;;;6.90;0.90;;;;;;;21.03;65.33;101495.89;110426;1259;22203;-63
2023/09/04 11:33:34;;;;;;;4.80;0.80;;;;;;;21.08;65.07;101494.01;110451;1273;22137;-62
2023/09/04 11:36:07;;;;;;;5.30;0.70;;;;;;;21.13;64.81;101500.19;110475;1267;22458;-63
2023/09/04 11:38:38;;;;;;;3.60;0.70;;;;;;;21.12;64.84;101502.71;110443;1273;22189;-64